createdAt,value
2023-01-25T00:02:57.400Z,3.51
2023-01-25T00:08:01.730Z,3.25
2023-01-25T00:13:07.592Z,3.60
2023-01-25T00:18:11.548Z,3.41
2023-01-25T00:23:16.146Z,3.36
2023-01-25T00:28:22.897Z,3.05
2023-01-25T00:33:37.657Z,3.43
2023-01-25T00:38:45.192Z,3.44
2023-01-25T00:43:53.894Z,3.58
2023-01-25T00:48:58.711Z,3.44
2023-01-25T00:54:03.255Z,2.87
2023-01-25T00:59:09.660Z,3.14
2023-01-25T01:04:15.635Z,2.95
2023-01-25T01:09:22.283Z,2.70
2023-01-25T01:14:32.490Z,2.91
2023-01-25T01:19:40.162Z,2.86
2023-01-25T01:24:45.282Z,2.85
2023-01-25T01:29:51.518Z,2.94
2023-01-25T01:34:57.069Z,3.27
2023-01-25T01:40:01.913Z,2.29
2023-01-25T01:45:39.792Z,2.57
2023-01-25T01:50:46.556Z,3.38
2023-01-25T01:55:52.566Z,2.64
2023-01-25T02:00:57.731Z,2.90
2023-01-25T02:06:09.076Z,3.55
2023-01-25T02:11:14.273Z,3.82
2023-01-25T02:16:24.172Z,3.26
2023-01-25T02:21:39.418Z,3.59
2023-01-25T02:26:46.008Z,3.13
2023-01-25T02:31:52.834Z,3.41
2023-01-25T02:36:57.743Z,4.05
2023-01-25T02:42:04.248Z,2.39
2023-01-25T02:47:09.042Z,2.83
2023-01-25T02:52:13.778Z,1.22
2023-01-25T02:57:21.711Z,1.20
2023-01-25T03:02:28.411Z,1.17
2023-01-25T03:07:35.002Z,0.91
2023-01-25T03:12:43.088Z,0.58
2023-01-25T03:17:48.182Z,1.01
2023-01-25T03:22:52.992Z,1.84
2023-01-25T03:27:59.633Z,1.64
2023-01-25T03:33:04.768Z,1.89
2023-01-25T03:38:10.920Z,1.90
2023-01-25T03:43:17.551Z,2.23
2023-01-25T03:48:28.863Z,2.04
2023-01-25T03:53:34.054Z,1.64
2023-01-25T03:58:49.347Z,2.82
2023-01-25T04:03:54.965Z,2.20
2023-01-25T04:08:59.697Z,2.28
2023-01-25T04:14:11.984Z,2.17
2023-01-25T04:19:25.402Z,2.47
2023-01-25T04:24:34.208Z,2.38
2023-01-25T04:29:41.893Z,1.66
2023-01-25T04:34:53.060Z,1.70
2023-01-25T04:40:00.618Z,1.68
2023-01-25T04:45:13.095Z,1.29
2023-01-25T04:50:18.873Z,1.25
2023-01-25T04:55:24.840Z,1.52
2023-01-25T05:00:33.305Z,1.64
2023-01-25T05:05:39.272Z,1.60
2023-01-25T05:10:49.100Z,0.82
2023-01-25T05:16:11.899Z,1.46
2023-01-25T05:21:32.850Z,1.42
2023-01-25T05:26:55.044Z,1.75
2023-01-25T05:32:01.647Z,2.10
2023-01-25T05:37:09.264Z,1.23
2023-01-25T05:42:19.880Z,0.97
2023-01-25T05:47:26.729Z,1.06
2023-01-25T05:52:33.009Z,1.50
2023-01-25T05:57:37.934Z,1.41
2023-01-25T06:02:44.229Z,1.49
2023-01-25T06:07:54.224Z,1.76
2023-01-25T06:13:02.044Z,2.12
2023-01-25T06:18:08.616Z,1.66
2023-01-25T06:23:36.316Z,2.12
2023-01-25T06:28:43.927Z,2.53
2023-01-25T06:33:53.023Z,2.35
2023-01-25T06:39:00.510Z,2.52
2023-01-25T06:44:05.353Z,2.77
2023-01-25T06:49:12.053Z,2.29
2023-01-25T06:54:16.498Z,2.28
2023-01-25T06:59:21.009Z,2.72
2023-01-25T07:04:26.897Z,3.40
2023-01-25T07:09:30.980Z,3.38
2023-01-25T07:14:35.452Z,3.88
2023-01-25T07:19:41.304Z,3.43
2023-01-25T07:24:50.159Z,1.99
2023-01-25T07:29:55.118Z,2.66
2023-01-25T07:35:00.927Z,2.43
2023-01-25T07:40:06.303Z,2.89
2023-01-25T07:45:12.300Z,3.42
2023-01-25T07:50:18.811Z,3.12
2023-01-25T07:55:23.687Z,3.33
2023-01-25T08:00:28.564Z,2.94
2023-01-25T08:05:34.505Z,3.64
2023-01-25T08:10:40.497Z,1.94
2023-01-25T08:15:45.901Z,1.37
2023-01-25T08:20:52.107Z,2.14
2023-01-25T08:25:57.648Z,3.45
2023-01-25T08:31:09.557Z,4.00
2023-01-25T08:36:16.860Z,4.19
2023-01-25T08:41:21.471Z,4.42
2023-01-25T08:46:30.155Z,3.43
2023-01-25T08:51:37.517Z,3.90
2023-01-25T08:56:42.451Z,4.23
2023-01-25T09:01:46.981Z,4.87
2023-01-25T09:06:52.781Z,5.03
2023-01-25T09:11:56.811Z,4.15
2023-01-25T09:17:01.163Z,4.37
2023-01-25T09:22:07.029Z,4.39
2023-01-25T09:27:11.097Z,4.22
2023-01-25T09:32:15.594Z,3.43
2023-01-25T09:37:31.238Z,2.74
2023-01-25T09:42:45.137Z,3.55
2023-01-25T09:47:55.925Z,3.28
2023-01-25T09:53:33.076Z,3.57
2023-01-25T09:58:41.659Z,2.93
2023-01-25T10:03:54.145Z,3.47
2023-01-25T10:09:08.816Z,3.09
2023-01-25T10:14:16.707Z,2.55
2023-01-25T10:19:27.077Z,3.71
2023-01-25T10:25:04.780Z,3.06
2023-01-25T10:30:25.484Z,3.02
2023-01-25T10:35:39.248Z,2.78
2023-01-25T10:40:51.930Z,2.85
2023-01-25T10:45:57.840Z,2.26
2023-01-25T10:51:02.365Z,2.66
2023-01-25T10:56:19.465Z,2.41
2023-01-25T11:01:30.769Z,2.07
2023-01-25T11:06:37.919Z,2.28
2023-01-25T11:11:43.796Z,2.40
2023-01-25T11:16:50.288Z,2.47
2023-01-25T11:21:56.404Z,2.40
2023-01-25T11:27:15.784Z,2.68
2023-01-25T11:32:25.897Z,3.31
2023-01-25T11:37:49.950Z,2.59
2023-01-25T11:43:04.356Z,3.05
2023-01-25T11:48:26.420Z,3.21
2023-01-25T11:53:57.467Z,2.04
2023-01-25T11:59:18.183Z,1.83
2023-01-25T12:04:48.825Z,1.96
2023-01-25T12:10:05.577Z,1.95
2023-01-25T12:15:29.152Z,2.81
2023-01-25T12:20:44.258Z,3.48
2023-01-25T12:25:59.476Z,3.46
2023-01-25T12:31:10.944Z,3.26
2023-01-25T12:36:23.008Z,3.74
2023-01-25T12:41:40.383Z,3.77
2023-01-25T12:46:49.956Z,3.63
2023-01-25T12:52:00.572Z,3.67
2023-01-25T12:57:13.192Z,3.15
2023-01-25T13:02:47.121Z,3.52
2023-01-25T13:08:03.635Z,4.29
2023-01-25T13:13:21.668Z,4.05
2023-01-25T13:18:41.853Z,3.39
2023-01-25T13:23:48.682Z,3.70
2023-01-25T13:28:54.495Z,3.72
2023-01-25T13:34:00.341Z,3.72
2023-01-25T13:39:45.399Z,3.87
2023-01-25T13:44:52.059Z,3.74
2023-01-25T13:50:02.217Z,3.30
2023-01-25T13:55:19.296Z,3.54
2023-01-25T14:00:24.394Z,3.32
2023-01-25T14:05:28.828Z,3.27
2023-01-25T14:10:34.607Z,2.12
2023-01-25T14:15:39.139Z,2.29
2023-01-25T14:20:44.583Z,2.09
2023-01-25T14:25:50.530Z,2.19
2023-01-25T14:30:55.978Z,1.65
2023-01-25T14:36:16.362Z,2.08
2023-01-25T14:41:34.041Z,1.86
2023-01-25T14:46:39.983Z,2.26
2023-01-25T14:51:46.946Z,3.00
2023-01-25T14:56:55.168Z,2.95
2023-01-25T15:02:01.988Z,3.37
2023-01-25T15:07:17.738Z,3.20
2023-01-25T15:12:27.416Z,3.81
2023-01-25T15:17:48.701Z,2.11
2023-01-25T15:22:53.005Z,1.89
2023-01-25T15:27:58.790Z,2.81
2023-01-25T15:33:03.368Z,2.16
2023-01-25T15:38:10.971Z,2.67
2023-01-25T15:43:18.665Z,2.94
2023-01-25T15:48:29.492Z,2.17
2023-01-25T15:53:33.852Z,1.28
2023-01-25T15:58:42.335Z,1.88
2023-01-25T16:03:46.861Z,2.08
2023-01-25T16:08:51.206Z,1.84
2023-01-25T16:13:58.029Z,0.75
2023-01-25T16:19:02.488Z,1.56
2023-01-25T16:24:07.166Z,2.09
2023-01-25T16:29:13.921Z,2.24
2023-01-25T16:34:18.433Z,2.10
2023-01-25T16:39:25.424Z,1.39
2023-01-25T16:44:32.546Z,1.61
2023-01-25T16:49:37.024Z,2.30
2023-01-25T16:54:41.451Z,2.12
2023-01-25T16:59:47.414Z,1.64
2023-01-25T17:04:51.917Z,2.37
2023-01-25T17:09:56.505Z,2.91
2023-01-25T17:15:02.188Z,2.12
2023-01-25T17:20:06.652Z,1.22
2023-01-25T17:25:11.172Z,1.75
2023-01-25T17:30:18.609Z,1.99
2023-01-25T17:35:22.987Z,1.50
2023-01-25T17:40:27.535Z,2.17
2023-01-25T17:45:38.605Z,2.21
2023-01-25T17:50:43.199Z,1.74
2023-01-25T17:55:47.658Z,2.06
2023-01-25T18:00:59.363Z,1.46
2023-01-25T18:06:10.214Z,1.76
2023-01-25T18:11:17.449Z,1.62
2023-01-25T18:16:24.594Z,2.10
2023-01-25T18:21:31.775Z,1.41
2023-01-25T18:26:38.187Z,1.87
2023-01-25T18:31:45.593Z,1.61
2023-01-25T18:36:51.250Z,1.53
2023-01-25T18:41:56.105Z,1.51
2023-01-25T18:47:01.989Z,1.63
2023-01-25T18:52:11.684Z,1.63
2023-01-25T18:57:17.097Z,1.44
2023-01-25T19:02:23.679Z,1.90
2023-01-25T19:07:28.283Z,1.52
2023-01-25T19:12:32.622Z,1.52
2023-01-25T19:17:38.525Z,1.23
2023-01-25T19:22:42.524Z,1.21
2023-01-25T19:27:47.204Z,1.09
2023-01-25T19:32:53.188Z,1.13
2023-01-25T19:37:58.157Z,0.83
2023-01-25T19:43:02.702Z,1.28
2023-01-25T19:48:09.137Z,0.96
2023-01-25T19:53:13.816Z,1.55
2023-01-25T19:58:18.207Z,0.92
2023-01-25T20:03:27.623Z,1.03
2023-01-25T20:08:43.465Z,1.12
2023-01-25T20:13:51.090Z,1.06
2023-01-25T20:18:58.024Z,1.20
2023-01-25T20:24:06.940Z,1.04
2023-01-25T20:29:13.257Z,0.89
2023-01-25T20:34:21.975Z,0.76
2023-01-25T20:39:26.426Z,1.20
2023-01-25T20:44:30.738Z,0.95
2023-01-25T20:49:38.340Z,1.50
2023-01-25T20:54:43.101Z,1.53
2023-01-25T20:59:47.527Z,0.99
2023-01-25T21:04:53.411Z,1.32
2023-01-25T21:09:57.864Z,2.06
2023-01-25T21:15:02.414Z,2.35
2023-01-25T21:20:09.655Z,0.99
2023-01-25T21:25:13.973Z,1.82
2023-01-25T21:30:19.058Z,0.93
2023-01-25T21:35:24.788Z,1.02
2023-01-25T21:40:30.692Z,1.05
2023-01-25T21:45:52.845Z,1.21
2023-01-25T21:51:21.522Z,1.08
2023-01-25T21:56:25.912Z,1.17
2023-01-25T22:01:35.172Z,1.46
2023-01-25T22:06:41.279Z,1.63
2023-01-25T22:11:46.862Z,2.05
2023-01-25T22:16:51.313Z,1.59
2023-01-25T22:21:57.283Z,1.40
2023-01-25T22:27:28.465Z,1.91
2023-01-25T22:32:32.786Z,1.28
2023-01-25T22:37:39.318Z,1.37
2023-01-25T22:42:43.795Z,0.89
2023-01-25T22:47:48.351Z,0.78
2023-01-25T22:52:54.181Z,0.65
2023-01-25T22:57:58.311Z,0.94
2023-01-25T23:03:02.664Z,1.07
2023-01-25T23:08:11.354Z,0.86
2023-01-25T23:13:15.690Z,1.35
2023-01-25T23:18:37.331Z,0.88
2023-01-25T23:23:43.351Z,1.71
2023-01-25T23:28:53.120Z,1.97
2023-01-25T23:34:00.159Z,1.70
2023-01-25T23:39:06.956Z,0.99
2023-01-25T23:44:11.459Z,1.03
2023-01-25T23:49:15.791Z,2.13
2023-01-25T23:54:21.814Z,2.85
2023-01-25T23:59:25.954Z,2.93
